Black River, Minnesota
Current Conditions -  °F | °C
As of 3:55 AM on Friday 31 Oct 2014 (Local Time) from KINL Reporting Station
Broken Clouds Broken Clouds  
Wind Chill: 16°   Ceiling: 3000
Heat Index: 27°   Visibility: 10mi
Dew Point: 17°   Wind: 13mph
Humidity: 66%   Direction: 10°N
Pressure: 30.53"   Gusts: NA
Location:  48.5075°N, 93.9033°W
Report Text: KINL 310855Z AUTO 01011KT 10SM BKN030 M03/M08 A3053 RMK AO2 SLP357 T10281083 51017
Loading
Personal Weather Stations






























Interactive Weather Map
Tropical Storm Tracking
New forecast layout! Learn more

10-Day Weather Forecast

Advertisements
Track Severe Weather on mobile